Time;durP1;ratioP1;P1;durP2;ratioP2;P2;SDS_P1;SDS_P2;PMS_P1;PMS_P2;Temp;Humidity;BMP_temperature;BMP_pressure;BME280_temperature;BME280_humidity;BME280_pressure;Samples;Min_cycle;Max_cycle;Signal;HPM_P1;HPM_P2
2021/11/25 00:00:31;;;;;;;50.50;33.58;;;5.90;99.90;;;;;;5003516;28;20041;-67
2021/11/25 00:02:57;;;;;;;52.53;34.03;;;5.90;99.90;;;;;;5022526;28;20037;-67
2021/11/25 00:05:23;;;;;;;49.70;33.83;;;5.80;99.90;;;;;;5021103;28;20041;-67
2021/11/25 00:07:49;;;;;;;52.40;35.03;;;5.80;99.90;;;;;;5027142;28;20413;-67
2021/11/25 00:10:15;;;;;;;52.72;36.25;;;5.80;99.90;;;;;;5016476;28;20521;-67
2021/11/25 00:12:41;;;;;;;50.28;33.88;;;5.80;99.90;;;;;;5025518;28;20065;-67
2021/11/25 00:15:09;;;;;;;53.50;34.35;;;5.80;99.90;;;;;;5008264;28;20080;-67
2021/11/25 00:17:35;;;;;;;50.78;34.88;;;5.80;99.90;;;;;;5018521;28;20073;-67
2021/11/25 00:20:02;;;;;;;53.65;35.50;;;5.80;99.90;;;;;;5027010;28;20064;-67
2021/11/25 00:22:28;;;;;;;53.75;35.50;;;5.90;99.90;;;;;;5018183;28;20456;-67
2021/11/25 00:24:53;;;;;;;50.63;34.40;;;5.80;99.90;;;;;;5026569;28;20029;-67
2021/11/25 00:27:19;;;;;;;55.35;36.15;;;5.80;99.90;;;;;;4998020;28;20482;-67
2021/11/25 00:29:45;;;;;;;52.90;34.88;;;5.80;99.90;;;;;;5008769;28;20042;-67
2021/11/25 00:32:11;;;;;;;52.30;34.83;;;5.80;99.90;;;;;;5003224;28;20206;-67
2021/11/25 00:34:36;;;;;;;51.33;34.90;;;5.80;99.90;;;;;;5022645;28;20040;-67
2021/11/25 00:37:02;;;;;;;53.47;36.30;;;5.80;99.90;;;;;;5002855;28;20091;-67
2021/11/25 00:39:28;;;;;;;54.28;35.83;;;5.80;99.90;;;;;;5027964;28;20040;-67
2021/11/25 00:41:54;;;;;;;52.65;37.00;;;5.80;99.90;;;;;;5018110;28;20140;-67
2021/11/25 00:44:19;;;;;;;57.95;35.90;;;5.80;99.90;;;;;;5024866;28;20033;-67
2021/11/25 00:46:45;;;;;;;54.63;35.55;;;5.80;99.90;;;;;;5019574;28;20038;-67
2021/11/25 00:49:11;;;;;;;55.00;36.83;;;5.80;99.90;;;;;;5007399;28;20059;-67
2021/11/25 00:51:37;;;;;;;56.33;35.92;;;5.80;99.90;;;;;;5021011;28;20073;-67
2021/11/25 00:54:03;;;;;;;56.20;37.08;;;5.80;99.90;;;;;;5005249;28;20071;-67
2021/11/25 00:56:29;;;;;;;58.47;37.03;;;5.80;99.90;;;;;;5025475;28;20049;-67
2021/11/25 00:58:55;;;;;;;61.20;37.42;;;5.70;99.90;;;;;;5012924;28;20100;-67
2021/11/25 01:01:21;;;;;;;55.92;36.47;;;5.80;99.90;;;;;;5008927;28;20073;-67
2021/11/25 01:03:46;;;;;;;56.63;35.97;;;5.80;99.90;;;;;;5023630;28;20039;-67
2021/11/25 01:06:13;;;;;;;53.83;35.83;;;5.80;99.90;;;;;;5028871;28;20453;-67
2021/11/25 01:08:38;;;;;;;54.45;36.67;;;5.80;99.90;;;;;;5021039;28;20250;-67
2021/11/25 01:11:05;;;;;;;56.30;37.15;;;5.80;99.90;;;;;;5030600;28;20639;-67
2021/11/25 01:13:31;;;;;;;62.95;39.80;;;5.80;99.90;;;;;;5005000;28;20104;-67
2021/11/25 01:15:57;;;;;;;60.35;37.92;;;5.80;99.90;;;;;;5026381;28;20042;-67
2021/11/25 01:18:23;;;;;;;62.28;37.80;;;5.80;99.90;;;;;;5020365;28;20124;-67
2021/11/25 01:20:51;;;;;;;58.47;37.67;;;5.80;99.90;;;;;;5029547;28;20045;-67
2021/11/25 01:23:20;;;;;;;61.55;38.75;;;5.80;99.90;;;;;;5018314;28;20052;-67
2021/11/25 01:25:48;;;;;;;61.20;37.70;;;5.80;99.90;;;;;;5029255;28;20052;-67
2021/11/25 01:28:14;;;;;;;62.00;38.42;;;5.80;99.90;;;;;;5005162;28;20112;-67
2021/11/25 01:30:50;;;;;;;60.42;37.05;;;5.80;99.90;;;;;;5027806;28;20037;-67
2021/11/25 01:33:16;;;;;;;61.28;37.58;;;5.80;99.90;;;;;;5023139;28;20116;-67
2021/11/25 01:35:43;;;;;;;63.60;38.55;;;5.80;99.90;;;;;;5006236;28;20136;-67
2021/11/25 01:38:09;;;;;;;62.70;39.17;;;5.80;99.90;;;;;;5027572;28;20152;-67
2021/11/25 01:40:36;;;;;;;60.75;38.05;;;5.80;99.90;;;;;;5005961;28;20041;-67
2021/11/25 01:43:02;;;;;;;62.20;37.72;;;5.90;99.90;;;;;;5025892;28;20049;-67
2021/11/25 01:45:28;;;;;;;61.15;37.80;;;5.80;99.90;;;;;;5004914;28;20038;-67
2021/11/25 01:47:55;;;;;;;60.20;37.67;;;5.80;99.90;;;;;;5029462;28;20547;-67
2021/11/25 01:50:22;;;;;;;65.00;38.20;;;5.80;99.90;;;;;;5017429;28;20050;-67
2021/11/25 01:52:48;;;;;;;63.63;38.00;;;5.80;99.90;;;;;;5027622;28;20029;-67
2021/11/25 01:55:15;;;;;;;63.83;37.20;;;5.80;99.90;;;;;;5006797;28;20033;-67
2021/11/25 01:57:41;;;;;;;69.75;39.70;;;5.90;99.90;;;;;;5012195;28;20175;-67
2021/11/25 02:00:12;;;;;;;70.03;37.75;;;5.80;99.90;;;;;;5006434;28;20541;-67
2021/11/25 02:02:39;;;;;;;68.85;39.90;;;5.90;99.90;;;;;;5025645;28;20038;-67
2021/11/25 02:05:05;;;;;;;68.63;37.58;;;5.80;99.90;;;;;;5023529;28;20053;-67
2021/11/25 02:07:31;;;;;;;73.15;39.50;;;5.80;99.90;;;;;;4993351;28;20057;-67
2021/11/25 02:09:56;;;;;;;69.93;40.53;;;5.80;99.90;;;;;;5019801;28;20098;-67
2021/11/25 02:12:22;;;;;;;70.10;38.78;;;5.80;99.90;;;;;;5027440;28;20375;-67
2021/11/25 02:14:48;;;;;;;73.22;40.50;;;5.80;99.90;;;;;;5009709;28;20060;-67
2021/11/25 02:17:14;;;;;;;71.63;40.17;;;5.80;99.90;;;;;;5004309;28;20045;-67
2021/11/25 02:19:42;;;;;;;71.15;39.78;;;5.80;99.90;;;;;;4989805;28;20033;-67
2021/11/25 02:22:09;;;;;;;70.53;40.22;;;5.80;99.90;;;;;;5001911;28;20183;-67
2021/11/25 02:24:35;;;;;;;71.05;39.92;;;5.90;99.90;;;;;;4995388;28;20124;-67
2021/11/25 02:27:01;;;;;;;71.85;40.13;;;5.80;99.90;;;;;;4999959;28;20636;-67
2021/11/25 02:29:27;;;;;;;73.07;38.72;;;5.90;99.90;;;;;;5026253;28;20049;-67
2021/11/25 02:31:53;;;;;;;74.78;39.97;;;5.80;99.90;;;;;;5019373;28;20501;-67
2021/11/25 02:34:19;;;;;;;77.45;41.55;;;5.80;99.90;;;;;;5029482;28;20037;-66
2021/11/25 02:36:45;;;;;;;74.30;39.33;;;5.80;99.90;;;;;;5020643;28;20034;-67
2021/11/25 02:39:11;;;;;;;72.97;40.92;;;5.90;99.90;;;;;;5008480;28;20124;-67
2021/11/25 02:41:37;;;;;;;75.20;40.70;;;5.90;99.90;;;;;;5024144;28;20083;-67
2021/11/25 02:44:02;;;;;;;77.72;40.92;;;5.80;99.90;;;;;;5005462;28;20046;-67
2021/11/25 02:46:28;;;;;;;73.25;40.83;;;5.90;99.90;;;;;;5020830;28;20425;-67
2021/11/25 02:48:56;;;;;;;66.50;38.22;;;5.80;99.90;;;;;;5028450;28;20095;-67
2021/11/25 02:51:25;;;;;;;74.22;40.47;;;5.90;99.90;;;;;;5015819;28;20538;-67
2021/11/25 02:53:52;;;;;;;73.32;39.95;;;5.90;99.90;;;;;;5025636;28;20042;-67
2021/11/25 02:56:22;;;;;;;76.70;41.10;;;5.90;99.90;;;;;;5029247;28;20034;-67
2021/11/25 02:58:49;;;;;;;75.38;39.65;;;5.80;99.90;;;;;;5020044;28;20037;-67
2021/11/25 03:01:29;;;;;;;73.82;41.30;;;5.90;99.90;;;;;;5008999;28;20042;-67
2021/11/25 03:03:55;;;;;;;74.35;40.28;;;5.90;99.90;;;;;;5018502;28;20045;-67
2021/11/25 03:06:21;;;;;;;75.07;39.42;;;5.90;99.90;;;;;;5024985;28;20589;-67
2021/11/25 03:08:47;;;;;;;70.68;40.70;;;5.80;99.90;;;;;;5004067;28;20048;-67
2021/11/25 03:11:15;;;;;;;77.20;41.25;;;5.80;99.90;;;;;;5026086;28;20449;-67
2021/11/25 03:13:43;;;;;;;73.63;39.97;;;5.90;99.90;;;;;;5019788;28;20107;-67
2021/11/25 03:16:10;;;;;;;76.20;40.55;;;5.90;99.90;;;;;;5028848;28;20045;-67
2021/11/25 03:18:37;;;;;;;77.82;39.83;;;5.80;99.90;;;;;;5005081;28;20075;-67
2021/11/25 03:21:04;;;;;;;78.45;41.05;;;5.80;99.90;;;;;;5025152;28;20042;-67
2021/11/25 03:23:31;;;;;;;75.30;40.42;;;5.80;99.90;;;;;;5004609;28;20052;-67
2021/11/25 03:25:59;;;;;;;76.10;40.45;;;5.90;99.90;;;;;;5007667;28;20054;-67
2021/11/25 03:28:25;;;;;;;77.28;38.78;;;5.80;99.90;;;;;;5002191;28;20073;-67
2021/11/25 03:30:55;;;;;;;79.55;41.40;;;5.80;99.90;;;;;;5027212;28;20048;-67
2021/11/25 03:33:28;;;;;;;74.93;39.47;;;5.80;99.90;;;;;;5020911;28;20045;-67
2021/11/25 03:35:54;;;;;;;84.15;42.22;;;5.90;99.90;;;;;;5006071;28;20046;-67
2021/11/25 03:38:20;;;;;;;76.30;40.03;;;5.80;99.90;;;;;;5018537;28;20056;-67
2021/11/25 03:40:47;;;;;;;83.53;40.83;;;5.80;99.90;;;;;;5023706;28;20033;-67
2021/11/25 03:43:13;;;;;;;89.47;42.90;;;5.80;99.90;;;;;;5008251;28;20038;-67
2021/11/25 03:45:39;;;;;;;82.32;41.55;;;5.80;99.90;;;;;;5019318;28;20485;-67
2021/11/25 03:48:05;;;;;;;82.97;40.90;;;5.80;99.90;;;;;;5008301;28;20036;-67
2021/11/25 03:50:31;;;;;;;87.60;41.70;;;5.80;99.90;;;;;;5000086;28;20330;-67
2021/11/25 03:52:57;;;;;;;90.10;43.70;;;5.80;99.90;;;;;;5023894;28;20049;-67
2021/11/25 03:55:22;;;;;;;85.97;42.03;;;5.80;99.90;;;;;;5018204;28;20048;-66
2021/11/25 03:57:49;;;;;;;87.80;42.05;;;5.80;99.90;;;;;;5008467;28;20073;-66
2021/11/25 04:00:18;;;;;;;86.90;42.10;;;5.70;99.90;;;;;;5001291;28;20034;-66
2021/11/25 04:02:45;;;;;;;89.60;42.20;;;5.70;99.90;;;;;;5022395;28;20501;-66
2021/11/25 04:05:11;;;;;;;98.97;42.50;;;5.70;99.90;;;;;;4999278;28;20124;-66
2021/11/25 04:07:37;;;;;;;92.22;42.47;;;5.70;99.90;;;;;;5026951;28;20041;-66
2021/11/25 04:10:05;;;;;;;91.38;41.67;;;5.80;99.90;;;;;;5021558;28;20547;-66
2021/11/25 04:12:31;;;;;;;91.07;42.15;;;5.70;99.90;;;;;;5021282;28;20186;-66
2021/11/25 04:14:57;;;;;;;84.75;39.45;;;5.70;99.90;;;;;;5021722;28;20088;-66
2021/11/25 04:17:23;;;;;;;88.63;43.08;;;5.70;99.90;;;;;;5023761;28;20117;-66
2021/11/25 04:19:50;;;;;;;84.80;41.55;;;5.70;99.90;;;;;;5018380;28;20136;-66
2021/11/25 04:22:18;;;;;;;85.45;42.22;;;5.60;99.90;;;;;;5019099;28;20037;-66
2021/11/25 04:24:44;;;;;;;77.82;39.15;;;5.70;99.90;;;;;;5007464;28;20499;-66
2021/11/25 04:27:10;;;;;;;84.25;41.03;;;5.70;99.90;;;;;;5016082;28;20038;-66
2021/11/25 04:29:39;;;;;;;74.60;40.58;;;5.60;99.90;;;;;;5007098;28;20068;-66
2021/11/25 04:37:33;;;;;;;70.78;40.55;;;5.60;99.90;;;;;;5020084;28;20048;-66
2021/11/25 04:39:59;;;;;;;75.03;43.05;;;5.60;99.90;;;;;;5029568;28;20405;-66
2021/11/25 04:42:25;;;;;;;82.45;41.55;;;5.60;99.90;;;;;;5023256;28;20486;-66
2021/11/25 04:44:51;;;;;;;75.30;41.40;;;5.50;99.90;;;;;;5027392;28;20453;-66
2021/11/25 04:47:16;;;;;;;74.35;41.80;;;5.50;99.90;;;;;;5004752;28;20079;-66
2021/11/25 04:49:42;;;;;;;68.82;40.08;;;5.50;99.90;;;;;;5028039;28;20080;-66
2021/11/25 04:52:08;;;;;;;66.90;41.63;;;5.50;99.90;;;;;;5023342;28;20042;-66
2021/11/25 04:54:34;;;;;;;71.25;42.17;;;5.50;99.90;;;;;;5012922;28;20101;-66
2021/11/25 04:56:59;;;;;;;72.53;41.35;;;5.50;99.90;;;;;;5019617;28;20048;-66
2021/11/25 04:59:25;;;;;;;74.95;43.90;;;5.40;99.90;;;;;;5030663;28;20042;-66
2021/11/25 05:01:51;;;;;;;73.25;42.50;;;5.40;99.90;;;;;;5019091;28;20038;-66
2021/11/25 05:04:17;;;;;;;69.13;41.42;;;5.40;99.90;;;;;;5022458;28;20529;-66
2021/11/25 05:06:42;;;;;;;65.10;40.88;;;5.40;99.90;;;;;;5023547;28;20033;-66
2021/11/25 05:09:08;;;;;;;67.50;41.95;;;5.40;99.90;;;;;;5010977;28;20046;-66
2021/11/25 05:11:34;;;;;;;68.32;41.70;;;5.30;99.90;;;;;;5029010;28;20486;-66
2021/11/25 05:14:00;;;;;;;70.72;43.58;;;5.30;99.90;;;;;;5020073;28;20041;-66
2021/11/25 05:16:26;;;;;;;66.90;43.15;;;5.30;99.90;;;;;;5028800;28;20049;-66
2021/11/25 05:18:52;;;;;;;69.47;44.33;;;5.30;99.90;;;;;;5004118;28;20041;-66
2021/11/25 05:21:18;;;;;;;72.85;44.42;;;5.30;99.90;;;;;;5027763;28;20080;-66
2021/11/25 05:23:43;;;;;;;67.38;43.60;;;5.20;99.90;;;;;;5022347;28;20484;-66
2021/11/25 05:26:09;;;;;;;66.93;44.67;;;5.20;99.90;;;;;;5011859;28;20265;-66
2021/11/25 05:28:35;;;;;;;69.03;44.00;;;5.10;99.90;;;;;;5022820;28;20382;-66
2021/11/25 05:31:00;;;;;;;64.95;43.50;;;5.20;99.90;;;;;;5025583;28;20046;-66
2021/11/25 05:33:26;;;;;;;66.70;43.78;;;5.20;99.90;;;;;;5023703;28;20037;-66
2021/11/25 05:35:52;;;;;;;64.47;41.90;;;5.10;99.90;;;;;;5027268;28;20136;-66
2021/11/25 05:38:18;;;;;;;64.57;43.47;;;5.00;99.90;;;;;;5018230;28;20060;-66
2021/11/25 05:40:45;;;;;;;65.55;42.83;;;4.90;99.90;;;;;;5027622;28;20053;-66
2021/11/25 05:43:11;;;;;;;66.15;42.67;;;4.90;99.90;;;;;;5023940;28;20079;-66
2021/11/25 05:45:36;;;;;;;68.85;44.58;;;4.80;99.90;;;;;;5027516;28;20033;-66
2021/11/25 05:48:02;;;;;;;69.13;44.55;;;4.70;99.90;;;;;;5026574;28;20037;-66
2021/11/25 05:50:28;;;;;;;66.35;43.17;;;4.60;99.90;;;;;;5024579;28;20490;-66
2021/11/25 05:52:56;;;;;;;67.55;43.95;;;4.70;99.90;;;;;;5010375;28;20107;-66
2021/11/25 05:55:26;;;;;;;73.18;45.42;;;4.60;99.90;;;;;;5020000;28;20136;-66
2021/11/25 05:57:52;;;;;;;72.18;45.40;;;4.50;99.90;;;;;;5026190;28;20042;-66
2021/11/25 06:00:18;;;;;;;73.55;45.50;;;4.60;99.90;;;;;;5024859;28;20030;-66
2021/11/25 06:02:45;;;;;;;65.60;44.03;;;4.50;99.90;;;;;;5025440;28;20026;-66
2021/11/25 06:05:16;;;;;;;72.13;46.60;;;4.60;99.90;;;;;;5022858;28;20037;-66
2021/11/25 06:07:45;;;;;;;74.03;48.22;;;4.60;99.90;;;;;;5027081;28;20872;-66
2021/11/25 06:10:11;;;;;;;70.03;46.55;;;4.60;99.90;;;;;;5021950;28;20314;-66
2021/11/25 06:12:37;;;;;;;64.13;44.65;;;4.60;99.90;;;;;;5028180;28;20037;-66
2021/11/25 06:15:05;;;;;;;64.07;45.33;;;4.60;99.90;;;;;;5018648;28;20045;-66
2021/11/25 06:17:30;;;;;;;69.32;45.45;;;4.60;99.90;;;;;;5028989;28;20043;-66
2021/11/25 06:19:56;;;;;;;66.93;45.10;;;4.70;99.90;;;;;;4997608;28;20037;-66
2021/11/25 06:22:23;;;;;;;69.85;46.53;;;4.60;99.90;;;;;;5026149;28;20037;-66
2021/11/25 06:24:49;;;;;;;69.03;45.90;;;4.70;99.90;;;;;;5018785;28;20498;-66
2021/11/25 06:27:15;;;;;;;69.00;47.20;;;4.70;99.90;;;;;;5025818;28;20046;-66
2021/11/25 06:29:41;;;;;;;62.28;45.90;;;4.80;99.90;;;;;;5023238;28;20418;-66
2021/11/25 06:32:07;;;;;;;61.88;44.17;;;4.80;99.90;;;;;;5025077;28;20047;-66
2021/11/25 06:34:33;;;;;;;62.92;44.53;;;4.80;99.90;;;;;;5028191;28;20254;-66
2021/11/25 06:36:58;;;;;;;65.40;46.35;;;4.80;99.90;;;;;;5022036;28;20037;-66
2021/11/25 06:39:24;;;;;;;59.92;43.70;;;4.90;99.90;;;;;;5025329;28;20036;-66
2021/11/25 06:41:50;;;;;;;63.72;45.13;;;4.90;99.90;;;;;;5002717;28;20052;-66
2021/11/25 06:44:16;;;;;;;63.72;45.15;;;4.90;99.90;;;;;;5014316;28;20069;-66
2021/11/25 06:46:41;;;;;;;65.22;46.30;;;4.90;99.90;;;;;;5008029;28;20037;-66
2021/11/25 06:49:07;;;;;;;65.60;44.88;;;4.90;99.90;;;;;;5022984;28;20050;-66
2021/11/25 06:51:33;;;;;;;64.63;44.45;;;4.90;99.90;;;;;;5024718;28;20048;-66
2021/11/25 06:53:59;;;;;;;61.88;45.03;;;5.00;99.90;;;;;;5027022;28;20111;-66
2021/11/25 06:56:25;;;;;;;63.50;45.72;;;4.90;99.90;;;;;;5020402;28;20042;-66
2021/11/25 06:58:52;;;;;;;58.10;43.90;;;4.90;99.90;;;;;;5027576;28;20056;-66
2021/11/25 07:01:18;;;;;;;66.50;46.28;;;4.90;99.90;;;;;;5023425;28;20046;-66
2021/11/25 07:03:44;;;;;;;67.82;44.45;;;4.90;99.90;;;;;;5021665;28;20493;-66
2021/11/25 07:06:10;;;;;;;61.28;43.53;;;4.80;99.90;;;;;;5019094;28;20083;-66
2021/11/25 07:08:36;;;;;;;61.33;44.42;;;4.90;99.90;;;;;;5030696;28;20432;-66
2021/11/25 07:11:01;;;;;;;64.13;45.10;;;4.80;99.90;;;;;;5026610;28;20466;-66
2021/11/25 07:13:27;;;;;;;63.70;45.28;;;4.90;99.90;;;;;;5001659;28;20494;-66
2021/11/25 07:15:54;;;;;;;66.82;45.35;;;4.80;99.90;;;;;;5026206;28;20756;-66
2021/11/25 07:18:19;;;;;;;63.33;45.03;;;4.80;99.90;;;;;;5019861;28;20046;-66
2021/11/25 07:20:46;;;;;;;61.00;44.53;;;4.90;99.90;;;;;;5027331;28;20064;-66
2021/11/25 07:23:11;;;;;;;62.78;44.40;;;4.90;99.90;;;;;;5022713;28;20033;-66
2021/11/25 07:25:37;;;;;;;64.22;46.10;;;4.90;99.90;;;;;;5025411;28;20512;-66
2021/11/25 07:28:03;;;;;;;68.10;45.90;;;4.90;99.90;;;;;;5019990;28;20033;-66
2021/11/25 07:30:29;;;;;;;70.50;46.63;;;4.90;99.90;;;;;;5028417;28;20159;-66
2021/11/25 07:32:55;;;;;;;66.63;46.03;;;4.90;99.90;;;;;;5019330;28;20113;-66
2021/11/25 07:35:23;;;;;;;69.80;45.38;;;4.90;99.90;;;;;;5024848;28;20040;-66
2021/11/25 07:37:52;;;;;;;66.25;44.55;;;5.00;99.90;;;;;;5001962;28;20179;-65
2021/11/25 07:40:20;;;;;;;68.78;46.38;;;5.00;99.90;;;;;;5026297;28;20112;-66
2021/11/25 07:42:46;;;;;;;66.72;46.63;;;5.00;99.90;;;;;;5023593;28;20529;-66
2021/11/25 07:45:12;;;;;;;66.85;45.35;;;5.00;99.90;;;;;;5028051;28;20041;-66
2021/11/25 07:47:38;;;;;;;64.07;44.47;;;5.10;99.90;;;;;;5024981;28;20125;-66
2021/11/25 07:50:08;;;;;;;68.35;46.03;;;5.10;99.90;;;;;;5024060;28;20180;-66
2021/11/25 07:52:34;;;;;;;67.43;45.70;;;5.10;99.90;;;;;;5025465;28;20684;-65
2021/11/25 07:55:00;;;;;;;68.13;45.90;;;5.10;99.90;;;;;;5020430;28;20063;-65
2021/11/25 07:57:27;;;;;;;66.53;43.72;;;5.10;99.90;;;;;;5025790;28;20045;-66
2021/11/25 07:59:53;;;;;;;68.93;45.80;;;5.10;99.90;;;;;;5022469;28;20029;-66
2021/11/25 08:02:19;;;;;;;68.60;46.40;;;5.10;99.90;;;;;;5027539;28;20042;-66
2021/11/25 08:04:46;;;;;;;72.30;46.88;;;5.20;99.90;;;;;;5000445;28;20134;-66
2021/11/25 08:07:12;;;;;;;69.95;46.13;;;5.20;99.90;;;;;;5031316;28;20600;-65
2021/11/25 08:09:37;;;;;;;71.25;47.13;;;5.20;99.90;;;;;;5003032;28;20132;-66
2021/11/25 08:12:04;;;;;;;69.38;48.20;;;5.20;99.90;;;;;;5025084;28;20029;-66
2021/11/25 08:14:29;;;;;;;69.00;46.30;;;5.20;99.90;;;;;;5019110;28;20482;-66
2021/11/25 08:16:58;;;;;;;70.75;47.38;;;5.20;99.90;;;;;;5022777;28;20044;-66
2021/11/25 08:19:25;;;;;;;75.25;47.92;;;5.30;99.90;;;;;;5016122;28;20033;-66
2021/11/25 08:21:51;;;;;;;81.15;49.13;;;5.30;99.90;;;;;;5025174;28;20041;-66
2021/11/25 08:24:16;;;;;;;73.15;46.55;;;5.40;99.90;;;;;;5018144;28;20617;-66
2021/11/25 08:26:42;;;;;;;72.90;46.92;;;5.30;99.90;;;;;;5023929;28;20083;-66
2021/11/25 08:29:08;;;;;;;71.82;46.28;;;5.30;99.90;;;;;;5023096;28;20064;-66
2021/11/25 08:31:33;;;;;;;71.97;46.47;;;5.40;99.90;;;;;;5003279;28;20128;-66
2021/11/25 08:33:59;;;;;;;74.10;47.85;;;5.40;99.90;;;;;;5024860;28;20041;-66
2021/11/25 08:36:25;;;;;;;71.18;47.00;;;5.40;99.90;;;;;;4998871;28;20045;-66
2021/11/25 08:38:51;;;;;;;74.47;47.35;;;5.40;99.90;;;;;;5023333;28;20034;-66
2021/11/25 08:41:17;;;;;;;76.32;45.50;;;5.40;99.90;;;;;;5017546;28;20033;-66
2021/11/25 08:43:42;;;;;;;73.85;48.80;;;5.50;99.90;;;;;;5000331;28;20041;-66
2021/11/25 08:46:08;;;;;;;77.25;48.63;;;5.50;99.90;;;;;;4998290;28;20058;-66
2021/11/25 08:48:34;;;;;;;73.57;48.15;;;5.50;99.90;;;;;;5023508;28;20614;-66
2021/11/25 08:51:02;;;;;;;78.80;47.22;;;5.50;99.90;;;;;;5015281;28;20092;-66
2021/11/25 08:53:28;;;;;;;77.35;48.60;;;5.50;99.90;;;;;;5023969;28;20444;-66
2021/11/25 08:55:54;;;;;;;80.80;48.03;;;5.50;99.90;;;;;;5018535;28;20045;-66
2021/11/25 08:58:20;;;;;;;82.63;49.90;;;5.50;99.90;;;;;;5007697;28;20576;-66
2021/11/25 09:00:45;;;;;;;84.85;51.53;;;5.50;99.90;;;;;;5000506;28;20077;-66
2021/11/25 09:03:11;;;;;;;86.35;51.85;;;5.50;99.90;;;;;;5025304;28;20040;-66
2021/11/25 09:05:37;;;;;;;87.68;51.33;;;5.50;99.90;;;;;;5009297;28;20050;-66
2021/11/25 09:08:03;;;;;;;83.10;50.70;;;5.50;99.90;;;;;;5017682;28;20042;-66
2021/11/25 09:10:29;;;;;;;84.45;51.53;;;5.60;99.90;;;;;;5021196;28;20527;-66
2021/11/25 09:12:55;;;;;;;83.15;51.05;;;5.70;99.90;;;;;;5021259;28;20037;-66
2021/11/25 09:15:22;;;;;;;86.75;51.45;;;5.70;99.90;;;;;;5025812;28;20044;-66
2021/11/25 09:17:48;;;;;;;89.07;50.85;;;5.70;99.90;;;;;;5000548;28;20045;-66
2021/11/25 09:20:13;;;;;;;84.43;50.80;;;5.80;99.90;;;;;;5006303;28;20067;-66
2021/11/25 09:22:39;;;;;;;90.32;52.10;;;5.80;99.90;;;;;;4999001;28;20041;-66
2021/11/25 09:25:07;;;;;;;93.43;52.13;;;5.80;99.90;;;;;;4993694;28;20076;-66
2021/11/25 09:27:33;;;;;;;93.43;52.20;;;5.90;99.90;;;;;;5024906;28;20049;-66
2021/11/25 09:29:59;;;;;;;82.25;50.38;;;6.00;99.90;;;;;;5029050;28;20071;-66
2021/11/25 09:32:26;;;;;;;86.00;50.70;;;6.10;99.90;;;;;;5018862;28;20033;-66
2021/11/25 09:34:52;;;;;;;85.15;50.97;;;6.20;99.90;;;;;;5008912;28;20115;-66
2021/11/25 09:37:19;;;;;;;84.97;51.33;;;6.20;99.90;;;;;;5023579;28;20049;-66
2021/11/25 09:39:45;;;;;;;82.38;50.88;;;6.20;99.90;;;;;;5025825;28;20494;-66
2021/11/25 09:42:10;;;;;;;84.00;49.83;;;6.20;99.90;;;;;;4999984;28;20064;-66
2021/11/25 09:44:36;;;;;;;76.15;46.97;;;6.20;99.90;;;;;;5026152;28;20378;-66
2021/11/25 09:47:03;;;;;;;84.38;49.33;;;6.20;99.90;;;;;;5026326;28;20120;-66
2021/11/25 09:49:29;;;;;;;84.75;50.42;;;6.20;99.90;;;;;;5019720;28;20115;-66
2021/11/25 09:51:56;;;;;;;97.50;52.25;;;6.20;99.90;;;;;;5028251;28;20054;-66
2021/11/25 09:54:23;;;;;;;92.80;51.70;;;6.20;99.90;;;;;;5004029;28;20103;-66
2021/11/25 09:56:49;;;;;;;89.35;49.78;;;6.30;99.90;;;;;;5025582;28;20034;-66
2021/11/25 09:59:16;;;;;;;87.05;50.55;;;6.30;99.90;;;;;;5019916;28;20045;-66
2021/11/25 10:01:42;;;;;;;93.68;50.38;;;6.50;99.90;;;;;;5010718;28;20045;-66
2021/11/25 10:04:08;;;;;;;98.35;50.25;;;6.50;99.90;;;;;;5024225;28;20048;-66
2021/11/25 10:06:59;;;;;;;90.05;48.90;;;6.70;99.90;;;;;;5024313;28;20072;-66
2021/11/25 10:09:39;;;;;;;80.97;47.95;;;6.90;99.90;;;;;;5019541;28;20037;-66
2021/11/25 10:12:36;;;;;;;87.72;50.47;;;7.10;99.90;;;;;;5026736;28;20394;-66
2021/11/25 10:15:36;;;;;;;77.25;46.92;;;7.20;99.90;;;;;;5003255;28;20148;-66
2021/11/25 10:18:17;;;;;;;79.22;47.47;;;7.50;99.90;;;;;;5028286;28;20046;-66
2021/11/25 10:20:50;;;;;;;74.43;45.00;;;7.70;99.90;;;;;;5022158;28;20040;-66
2021/11/25 10:23:28;;;;;;;72.45;45.95;;;7.80;99.90;;;;;;5027734;28;20034;-66
2021/11/25 10:26:10;;;;;;;73.82;43.58;;;7.90;99.90;;;;;;5002193;28;20072;-66
2021/11/25 10:28:40;;;;;;;67.38;43.10;;;7.90;99.90;;;;;;4987339;28;20049;-66
2021/11/25 10:31:20;;;;;;;70.05;43.03;;;7.80;99.90;;;;;;5023649;28;20048;-66
2021/11/25 10:33:55;;;;;;;72.78;45.67;;;7.80;99.90;;;;;;5017155;28;20030;-66
2021/11/25 10:39:34;;;;;;;79.70;45.38;;;7.70;99.90;;;;;;5023306;28;20048;-66
2021/11/25 10:42:05;;;;;;;71.18;44.67;;;7.60;99.90;;;;;;5007218;28;20045;-66
2021/11/25 10:44:36;;;;;;;74.25;44.47;;;7.60;99.90;;;;;;5023873;28;20037;-66
2021/11/25 10:47:03;;;;;;;73.00;45.58;;;7.60;99.90;;;;;;5023288;28;20040;-66
2021/11/25 10:49:37;;;;;;;71.65;43.28;;;7.60;99.90;;;;;;5026794;28;20098;-66
2021/11/25 10:52:32;;;;;;;67.43;42.43;;;7.60;99.90;;;;;;5022453;28;20457;-66
2021/11/25 10:55:14;;;;;;;72.72;43.88;;;7.70;99.90;;;;;;5023770;28;20413;-66
2021/11/25 10:57:54;;;;;;;70.93;43.42;;;7.60;99.90;;;;;;5021117;28;20124;-66
2021/11/25 11:00:25;;;;;;;71.15;42.47;;;7.70;99.90;;;;;;5001985;28;20382;-66
2021/11/25 11:03:06;;;;;;;69.70;43.35;;;7.80;99.90;;;;;;5006650;28;20046;-66
2021/11/25 11:05:51;;;;;;;67.80;41.03;;;7.90;99.90;;;;;;5019092;28;20494;-66
2021/11/25 11:08:17;;;;;;;64.97;40.83;;;7.90;99.90;;;;;;5021211;28;20099;-66
2021/11/25 11:10:55;;;;;;;63.13;41.03;;;8.00;99.90;;;;;;5021696;28;20040;-66
2021/11/25 11:15:55;;;;;;;59.00;38.28;;;8.10;99.90;;;;;;5003451;28;20081;-66
2021/11/25 11:18:56;;;;;;;56.45;36.53;;;8.10;99.90;;;;;;5020959;28;20508;-66
2021/11/25 11:21:39;;;;;;;51.00;31.52;;;8.10;99.90;;;;;;5017226;28;20034;-66
2021/11/25 11:24:14;;;;;;;49.80;33.08;;;8.20;99.90;;;;;;5018452;28;20117;-66
2021/11/25 11:26:47;;;;;;;49.05;31.00;;;8.20;99.90;;;;;;5022770;28;20041;-65
2021/11/25 11:29:16;;;;;;;53.33;32.20;;;8.20;99.90;;;;;;5022445;28;20489;-66
2021/11/25 11:31:43;;;;;;;42.00;27.13;;;8.10;99.90;;;;;;5020563;28;20045;-66
2021/11/25 11:34:09;;;;;;;39.70;25.17;;;8.20;99.90;;;;;;5024010;28;20049;-65
2021/11/25 11:36:41;;;;;;;39.65;24.92;;;8.20;99.90;;;;;;5020071;28;20080;-65
2021/11/25 11:39:08;;;;;;;40.05;23.17;;;8.30;99.90;;;;;;5023770;28;20034;-65
2021/11/25 11:41:34;;;;;;;30.95;21.00;;;8.20;99.90;;;;;;5027844;28;20037;-66
2021/11/25 11:44:02;;;;;;;33.20;21.05;;;8.10;99.90;;;;;;5017096;28;20045;-66
2021/11/25 11:46:30;;;;;;;31.33;18.83;;;8.20;99.90;;;;;;5023832;28;20046;-66
2021/11/25 11:48:59;;;;;;;26.00;15.18;;;8.30;99.90;;;;;;5019930;28;20033;-66
2021/11/25 11:51:25;;;;;;;20.83;13.05;;;8.30;99.90;;;;;;5026106;28;20060;-66
2021/11/25 11:53:54;;;;;;;24.27;12.60;;;8.40;99.90;;;;;;5003036;28;20049;-66
2021/11/25 11:56:32;;;;;;;22.85;10.77;;;8.50;99.90;;;;;;5023391;28;20128;-66
2021/11/25 11:58:59;;;;;;;23.60;9.48;;;8.50;99.90;;;;;;5018766;28;20046;-66
2021/11/25 12:01:27;;;;;;;17.55;9.52;;;8.50;99.90;;;;;;5028860;28;20084;-66
2021/11/25 12:03:58;;;;;;;14.05;7.43;;;8.60;99.90;;;;;;5019396;28;20068;-66
2021/11/25 12:06:35;;;;;;;14.98;6.80;;;8.60;99.90;;;;;;5020531;28;20368;-66
2021/11/25 12:09:23;;;;;;;17.80;5.88;;;8.60;99.90;;;;;;5017151;28;20037;-63
2021/11/25 12:12:15;;;;;;;15.60;4.38;;;8.60;99.90;;;;;;5007566;28;20140;-63
2021/11/25 12:14:49;;;;;;;10.38;3.75;;;8.60;99.90;;;;;;5022189;28;20048;-63
2021/11/25 12:17:22;;;;;;;;;;;8.70;99.90;;;;;;5028787;28;20095;-62
2021/11/25 12:19:48;;;;;;;9.02;3.17;;;8.60;99.90;;;;;;5015401;28;20373;-64
2021/11/25 12:22:14;;;;;;;10.13;2.88;;;8.60;99.90;;;;;;5022561;28;20033;-63
2021/11/25 12:24:54;;;;;;;13.05;2.50;;;8.70;99.90;;;;;;4997118;28;20049;-63
2021/11/25 12:27:28;;;;;;;11.13;2.97;;;8.60;99.90;;;;;;5022672;28;20042;-64
2021/11/25 12:30:00;;;;;;;8.55;1.88;;;8.60;99.90;;;;;;4998450;28;20137;-63
2021/11/25 12:32:47;;;;;;;9.60;2.15;;;8.60;99.90;;;;;;5006475;28;20045;-63
2021/11/25 12:35:17;;;;;;;14.07;2.60;;;8.50;99.90;;;;;;5019585;28;20049;-63
2021/11/25 12:37:46;;;;;;;10.07;1.55;;;8.50;99.90;;;;;;5008218;28;20081;-67
2021/11/25 12:40:18;;;;;;;9.40;1.23;;;8.40;99.90;;;;;;5000380;28;20099;-67
2021/11/25 12:43:08;;;;;;;9.23;1.40;;;8.30;99.90;;;;;;5021324;28;20457;-67
2021/11/25 12:45:46;;;;;;;7.25;1.20;;;8.20;99.90;;;;;;4994479;28;20041;-66
2021/11/25 12:48:16;;;;;;;6.85;1.25;;;8.30;99.90;;;;;;5025362;28;20041;-66
2021/11/25 12:50:50;;;;;;;10.57;1.70;;;8.20;99.90;;;;;;5018574;28;20065;-67
2021/11/25 12:53:35;;;;;;;12.60;1.40;;;8.20;99.90;;;;;;5021870;28;20152;-66